sensor_id;sensor_type;location;lat;lon;timestamp;P1;durP1;ratioP1;P2;durP2;ratioP2
69083;SDS011;56185;48.526;9.044;2023-03-17T00:00:48;6.35;;;3.58;;
69083;SDS011;56185;48.526;9.044;2023-03-17T00:03:24;5.57;;;3.60;;
69083;SDS011;56185;48.526;9.044;2023-03-17T00:05:51;6.15;;;3.90;;
69083;SDS011;56185;48.526;9.044;2023-03-17T00:08:24;4.95;;;3.60;;
69083;SDS011;56185;48.526;9.044;2023-03-17T00:10:50;4.30;;;3.10;;
69083;SDS011;56185;48.526;9.044;2023-03-17T00:13:16;5.07;;;3.40;;
69083;SDS011;56185;48.526;9.044;2023-03-17T00:15:41;4.80;;;3.33;;
69083;SDS011;56185;48.526;9.044;2023-03-17T00:18:15;6.30;;;3.80;;
69083;SDS011;56185;48.526;9.044;2023-03-17T00:20:43;4.75;;;3.40;;
69083;SDS011;56185;48.526;9.044;2023-03-17T00:23:19;5.70;;;3.30;;
69083;SDS011;56185;48.526;9.044;2023-03-17T00:25:46;8.00;;;3.58;;
69083;SDS011;56185;48.526;9.044;2023-03-17T00:28:16;5.55;;;3.67;;
69083;SDS011;56185;48.526;9.044;2023-03-17T00:30:43;8.55;;;3.67;;
69083;SDS011;56185;48.526;9.044;2023-03-17T00:33:09;6.38;;;3.92;;
69083;SDS011;56185;48.526;9.044;2023-03-17T00:35:35;6.63;;;3.30;;
69083;SDS011;56185;48.526;9.044;2023-03-17T00:38:00;5.25;;;3.58;;
69083;SDS011;56185;48.526;9.044;2023-03-17T00:40:27;6.75;;;3.20;;
69083;SDS011;56185;48.526;9.044;2023-03-17T00:42:53;5.88;;;3.40;;
69083;SDS011;56185;48.526;9.044;2023-03-17T00:45:20;5.47;;;3.67;;
69083;SDS011;56185;48.526;9.044;2023-03-17T00:47:47;5.57;;;3.90;;
69083;SDS011;56185;48.526;9.044;2023-03-17T00:50:15;9.70;;;4.10;;
69083;SDS011;56185;48.526;9.044;2023-03-17T00:52:43;8.25;;;4.28;;
69083;SDS011;56185;48.526;9.044;2023-03-17T00:55:10;6.15;;;4.00;;
69083;SDS011;56185;48.526;9.044;2023-03-17T01:00:03;5.43;;;3.92;;
69083;SDS011;56185;48.526;9.044;2023-03-17T01:02:30;5.95;;;3.80;;
69083;SDS011;56185;48.526;9.044;2023-03-17T01:04:56;5.53;;;3.45;;
69083;SDS011;56185;48.526;9.044;2023-03-17T01:07:22;8.18;;;4.93;;
69083;SDS011;56185;48.526;9.044;2023-03-17T01:09:47;8.13;;;4.00;;
69083;SDS011;56185;48.526;9.044;2023-03-17T01:12:12;6.03;;;4.30;;
69083;SDS011;56185;48.526;9.044;2023-03-17T01:14:37;8.07;;;4.45;;
69083;SDS011;56185;48.526;9.044;2023-03-17T01:17:05;11.00;;;4.60;;
69083;SDS011;56185;48.526;9.044;2023-03-17T01:19:37;5.40;;;4.00;;
69083;SDS011;56185;48.526;9.044;2023-03-17T01:22:03;5.13;;;3.80;;
69083;SDS011;56185;48.526;9.044;2023-03-17T01:24:28;7.38;;;3.83;;
69083;SDS011;56185;48.526;9.044;2023-03-17T01:26:53;6.20;;;4.03;;
69083;SDS011;56185;48.526;9.044;2023-03-17T01:29:18;6.65;;;4.05;;
69083;SDS011;56185;48.526;9.044;2023-03-17T01:31:44;7.35;;;4.57;;
69083;SDS011;56185;48.526;9.044;2023-03-17T01:34:09;9.45;;;4.50;;
69083;SDS011;56185;48.526;9.044;2023-03-17T01:36:34;10.67;;;4.43;;
69083;SDS011;56185;48.526;9.044;2023-03-17T01:38:59;5.47;;;3.95;;
69083;SDS011;56185;48.526;9.044;2023-03-17T01:41:26;6.03;;;3.70;;
69083;SDS011;56185;48.526;9.044;2023-03-17T01:43:51;5.22;;;3.38;;
69083;SDS011;56185;48.526;9.044;2023-03-17T01:46:23;5.40;;;3.53;;
69083;SDS011;56185;48.526;9.044;2023-03-17T01:52:00;5.20;;;3.60;;
69083;SDS011;56185;48.526;9.044;2023-03-17T01:54:36;6.47;;;3.95;;
69083;SDS011;56185;48.526;9.044;2023-03-17T01:57:08;8.02;;;3.83;;
69083;SDS011;56185;48.526;9.044;2023-03-17T01:59:38;6.20;;;4.07;;
69083;SDS011;56185;48.526;9.044;2023-03-17T02:02:08;5.60;;;3.85;;
69083;SDS011;56185;48.526;9.044;2023-03-17T02:04:36;5.47;;;3.95;;
69083;SDS011;56185;48.526;9.044;2023-03-17T02:07:02;5.90;;;3.90;;
69083;SDS011;56185;48.526;9.044;2023-03-17T02:09:28;6.18;;;3.83;;
69083;SDS011;56185;48.526;9.044;2023-03-17T02:11:54;5.57;;;3.83;;
69083;SDS011;56185;48.526;9.044;2023-03-17T02:14:21;7.40;;;4.65;;
69083;SDS011;56185;48.526;9.044;2023-03-17T02:16:46;5.55;;;3.50;;
69083;SDS011;56185;48.526;9.044;2023-03-17T02:19:12;5.85;;;3.65;;
69083;SDS011;56185;48.526;9.044;2023-03-17T02:24:08;6.70;;;4.03;;
69083;SDS011;56185;48.526;9.044;2023-03-17T02:26:38;6.38;;;3.50;;
69083;SDS011;56185;48.526;9.044;2023-03-17T02:29:04;5.32;;;3.58;;
69083;SDS011;56185;48.526;9.044;2023-03-17T02:31:29;5.70;;;3.40;;
69083;SDS011;56185;48.526;9.044;2023-03-17T02:33:54;6.80;;;3.40;;
69083;SDS011;56185;48.526;9.044;2023-03-17T02:36:20;8.43;;;3.83;;
69083;SDS011;56185;48.526;9.044;2023-03-17T02:38:46;5.47;;;3.88;;
69083;SDS011;56185;48.526;9.044;2023-03-17T02:41:11;6.82;;;3.45;;
69083;SDS011;56185;48.526;9.044;2023-03-17T02:43:37;7.93;;;4.20;;
69083;SDS011;56185;48.526;9.044;2023-03-17T02:46:03;6.22;;;3.28;;
69083;SDS011;56185;48.526;9.044;2023-03-17T02:48:28;7.63;;;3.72;;
69083;SDS011;56185;48.526;9.044;2023-03-17T02:50:54;6.38;;;3.78;;
69083;SDS011;56185;48.526;9.044;2023-03-17T02:53:19;7.43;;;3.88;;
69083;SDS011;56185;48.526;9.044;2023-03-17T02:55:46;7.78;;;3.60;;
69083;SDS011;56185;48.526;9.044;2023-03-17T02:58:11;6.53;;;4.28;;
69083;SDS011;56185;48.526;9.044;2023-03-17T03:00:37;5.75;;;4.07;;
69083;SDS011;56185;48.526;9.044;2023-03-17T03:03:02;5.72;;;4.07;;
69083;SDS011;56185;48.526;9.044;2023-03-17T03:05:27;8.55;;;4.15;;
69083;SDS011;56185;48.526;9.044;2023-03-17T03:07:53;8.80;;;4.60;;
69083;SDS011;56185;48.526;9.044;2023-03-17T03:10:18;6.30;;;4.03;;
69083;SDS011;56185;48.526;9.044;2023-03-17T03:12:43;6.85;;;4.30;;
69083;SDS011;56185;48.526;9.044;2023-03-17T03:15:09;5.90;;;4.25;;
69083;SDS011;56185;48.526;9.044;2023-03-17T03:17:35;6.25;;;4.50;;
69083;SDS011;56185;48.526;9.044;2023-03-17T03:20:02;6.95;;;4.60;;
69083;SDS011;56185;48.526;9.044;2023-03-17T03:22:28;7.43;;;4.57;;
69083;SDS011;56185;48.526;9.044;2023-03-17T03:24:53;5.60;;;4.30;;
69083;SDS011;56185;48.526;9.044;2023-03-17T03:27:18;8.85;;;5.20;;
69083;SDS011;56185;48.526;9.044;2023-03-17T03:29:45;8.35;;;4.68;;
69083;SDS011;56185;48.526;9.044;2023-03-17T03:32:10;6.53;;;4.18;;
69083;SDS011;56185;48.526;9.044;2023-03-17T03:34:35;8.05;;;4.30;;
69083;SDS011;56185;48.526;9.044;2023-03-17T03:37:01;8.13;;;4.40;;
69083;SDS011;56185;48.526;9.044;2023-03-17T03:39:27;7.00;;;4.13;;
69083;SDS011;56185;48.526;9.044;2023-03-17T03:41:52;6.18;;;4.60;;
69083;SDS011;56185;48.526;9.044;2023-03-17T03:44:18;9.57;;;4.65;;
69083;SDS011;56185;48.526;9.044;2023-03-17T03:46:43;8.32;;;4.38;;
69083;SDS011;56185;48.526;9.044;2023-03-17T03:49:10;5.80;;;4.30;;
69083;SDS011;56185;48.526;9.044;2023-03-17T03:51:36;5.97;;;4.00;;
69083;SDS011;56185;48.526;9.044;2023-03-17T03:54:01;6.03;;;4.00;;
69083;SDS011;56185;48.526;9.044;2023-03-17T03:56:27;10.50;;;4.72;;
69083;SDS011;56185;48.526;9.044;2023-03-17T03:58:52;5.68;;;4.13;;
69083;SDS011;56185;48.526;9.044;2023-03-17T04:01:17;7.38;;;4.53;;
69083;SDS011;56185;48.526;9.044;2023-03-17T04:03:42;6.05;;;4.30;;
69083;SDS011;56185;48.526;9.044;2023-03-17T04:06:08;7.90;;;4.43;;
69083;SDS011;56185;48.526;9.044;2023-03-17T04:08:33;6.07;;;4.28;;
69083;SDS011;56185;48.526;9.044;2023-03-17T04:10:58;6.45;;;4.00;;
69083;SDS011;56185;48.526;9.044;2023-03-17T04:13:24;5.82;;;4.20;;
69083;SDS011;56185;48.526;9.044;2023-03-17T04:15:49;7.45;;;4.70;;
69083;SDS011;56185;48.526;9.044;2023-03-17T04:18:14;6.53;;;4.70;;
69083;SDS011;56185;48.526;9.044;2023-03-17T04:20:40;7.82;;;4.88;;
69083;SDS011;56185;48.526;9.044;2023-03-17T04:23:05;6.53;;;4.32;;
69083;SDS011;56185;48.526;9.044;2023-03-17T04:25:30;7.15;;;4.60;;
69083;SDS011;56185;48.526;9.044;2023-03-17T04:27:55;6.85;;;4.43;;
69083;SDS011;56185;48.526;9.044;2023-03-17T04:30:21;7.20;;;4.47;;
69083;SDS011;56185;48.526;9.044;2023-03-17T04:32:46;6.63;;;3.95;;
69083;SDS011;56185;48.526;9.044;2023-03-17T04:35:15;6.00;;;4.47;;
69083;SDS011;56185;48.526;9.044;2023-03-17T04:37:43;7.78;;;4.78;;
69083;SDS011;56185;48.526;9.044;2023-03-17T04:40:09;7.45;;;4.22;;
69083;SDS011;56185;48.526;9.044;2023-03-17T04:42:36;7.60;;;4.70;;
69083;SDS011;56185;48.526;9.044;2023-03-17T04:45:02;8.23;;;4.50;;
69083;SDS011;56185;48.526;9.044;2023-03-17T04:47:28;6.57;;;4.47;;
69083;SDS011;56185;48.526;9.044;2023-03-17T04:49:54;7.68;;;5.13;;
69083;SDS011;56185;48.526;9.044;2023-03-17T04:52:19;5.85;;;4.35;;
69083;SDS011;56185;48.526;9.044;2023-03-17T04:54:44;8.27;;;4.53;;
69083;SDS011;56185;48.526;9.044;2023-03-17T04:57:12;8.00;;;4.70;;
69083;SDS011;56185;48.526;9.044;2023-03-17T04:59:37;8.82;;;4.25;;
69083;SDS011;56185;48.526;9.044;2023-03-17T05:02:02;8.37;;;4.90;;
69083;SDS011;56185;48.526;9.044;2023-03-17T05:04:28;7.43;;;4.85;;
69083;SDS011;56185;48.526;9.044;2023-03-17T05:06:53;6.47;;;4.90;;
69083;SDS011;56185;48.526;9.044;2023-03-17T05:09:18;6.57;;;4.65;;
69083;SDS011;56185;48.526;9.044;2023-03-17T05:11:43;7.17;;;4.70;;
69083;SDS011;56185;48.526;9.044;2023-03-17T05:14:09;9.07;;;4.57;;
69083;SDS011;56185;48.526;9.044;2023-03-17T05:16:34;7.10;;;4.35;;
69083;SDS011;56185;48.526;9.044;2023-03-17T05:18:59;8.43;;;5.07;;
69083;SDS011;56185;48.526;9.044;2023-03-17T05:21:24;7.18;;;4.82;;
69083;SDS011;56185;48.526;9.044;2023-03-17T05:23:50;6.35;;;4.45;;
69083;SDS011;56185;48.526;9.044;2023-03-17T05:26:16;7.28;;;4.65;;
69083;SDS011;56185;48.526;9.044;2023-03-17T05:28:41;7.32;;;4.80;;
69083;SDS011;56185;48.526;9.044;2023-03-17T05:31:06;6.78;;;4.20;;
69083;SDS011;56185;48.526;9.044;2023-03-17T05:33:32;6.57;;;4.60;;
69083;SDS011;56185;48.526;9.044;2023-03-17T05:35:57;6.43;;;4.43;;
69083;SDS011;56185;48.526;9.044;2023-03-17T05:38:22;7.15;;;4.35;;
69083;SDS011;56185;48.526;9.044;2023-03-17T05:40:48;5.82;;;4.13;;
69083;SDS011;56185;48.526;9.044;2023-03-17T05:43:16;9.80;;;4.35;;
69083;SDS011;56185;48.526;9.044;2023-03-17T05:45:43;13.40;;;4.80;;
69083;SDS011;56185;48.526;9.044;2023-03-17T05:48:08;7.30;;;4.50;;
69083;SDS011;56185;48.526;9.044;2023-03-17T05:50:34;10.18;;;3.70;;
69083;SDS011;56185;48.526;9.044;2023-03-17T05:52:59;9.05;;;4.20;;
69083;SDS011;56185;48.526;9.044;2023-03-17T05:55:24;7.10;;;4.10;;
69083;SDS011;56185;48.526;9.044;2023-03-17T05:57:49;6.32;;;4.25;;
69083;SDS011;56185;48.526;9.044;2023-03-17T06:00:15;8.35;;;4.15;;
69083;SDS011;56185;48.526;9.044;2023-03-17T06:02:40;7.90;;;3.80;;
69083;SDS011;56185;48.526;9.044;2023-03-17T06:05:06;7.03;;;4.40;;
69083;SDS011;56185;48.526;9.044;2023-03-17T06:07:36;7.43;;;4.20;;
69083;SDS011;56185;48.526;9.044;2023-03-17T06:10:01;6.45;;;4.18;;
69083;SDS011;56185;48.526;9.044;2023-03-17T06:12:27;6.82;;;4.53;;
69083;SDS011;56185;48.526;9.044;2023-03-17T06:14:54;8.82;;;4.70;;
69083;SDS011;56185;48.526;9.044;2023-03-17T06:17:19;6.60;;;4.70;;
69083;SDS011;56185;48.526;9.044;2023-03-17T06:19:44;7.18;;;4.68;;
69083;SDS011;56185;48.526;9.044;2023-03-17T06:22:09;8.60;;;5.20;;
69083;SDS011;56185;48.526;9.044;2023-03-17T06:24:35;8.65;;;5.03;;
69083;SDS011;56185;48.526;9.044;2023-03-17T06:27:01;9.88;;;4.80;;
69083;SDS011;56185;48.526;9.044;2023-03-17T06:29:26;8.60;;;4.60;;
69083;SDS011;56185;48.526;9.044;2023-03-17T06:31:55;8.52;;;4.53;;
69083;SDS011;56185;48.526;9.044;2023-03-17T06:34:22;8.60;;;4.40;;
69083;SDS011;56185;48.526;9.044;2023-03-17T06:36:48;6.25;;;3.67;;
69083;SDS011;56185;48.526;9.044;2023-03-17T06:39:13;9.25;;;4.63;;
69083;SDS011;56185;48.526;9.044;2023-03-17T06:41:39;8.52;;;4.40;;
69083;SDS011;56185;48.526;9.044;2023-03-17T06:44:04;7.05;;;4.32;;
69083;SDS011;56185;48.526;9.044;2023-03-17T06:46:32;7.75;;;4.35;;
69083;SDS011;56185;48.526;9.044;2023-03-17T06:48:57;5.15;;;3.85;;
69083;SDS011;56185;48.526;9.044;2023-03-17T06:51:23;7.97;;;4.10;;
69083;SDS011;56185;48.526;9.044;2023-03-17T06:53:48;7.00;;;4.13;;
69083;SDS011;56185;48.526;9.044;2023-03-17T06:56:13;7.57;;;4.43;;
69083;SDS011;56185;48.526;9.044;2023-03-17T07:01:07;10.18;;;5.70;;
69083;SDS011;56185;48.526;9.044;2023-03-17T07:03:33;9.13;;;5.18;;
69083;SDS011;56185;48.526;9.044;2023-03-17T07:05:58;9.45;;;5.47;;
69083;SDS011;56185;48.526;9.044;2023-03-17T07:08:25;7.30;;;4.60;;
69083;SDS011;56185;48.526;9.044;2023-03-17T07:10:53;8.43;;;4.78;;
69083;SDS011;56185;48.526;9.044;2023-03-17T07:13:18;8.32;;;5.20;;
69083;SDS011;56185;48.526;9.044;2023-03-17T07:15:44;8.90;;;5.07;;
69083;SDS011;56185;48.526;9.044;2023-03-17T07:18:09;9.88;;;5.40;;
69083;SDS011;56185;48.526;9.044;2023-03-17T07:20:34;12.97;;;5.30;;
69083;SDS011;56185;48.526;9.044;2023-03-17T07:22:59;8.03;;;5.20;;
69083;SDS011;56185;48.526;9.044;2023-03-17T07:25:25;9.95;;;4.60;;
69083;SDS011;56185;48.526;9.044;2023-03-17T07:27:50;9.85;;;4.65;;
69083;SDS011;56185;48.526;9.044;2023-03-17T07:30:15;6.07;;;4.00;;
69083;SDS011;56185;48.526;9.044;2023-03-17T07:32:41;7.57;;;4.50;;
69083;SDS011;56185;48.526;9.044;2023-03-17T07:35:06;6.80;;;4.40;;
69083;SDS011;56185;48.526;9.044;2023-03-17T07:37:31;7.03;;;4.45;;
69083;SDS011;56185;48.526;9.044;2023-03-17T07:39:57;6.57;;;4.45;;
69083;SDS011;56185;48.526;9.044;2023-03-17T07:42:22;7.27;;;5.00;;
69083;SDS011;56185;48.526;9.044;2023-03-17T07:44:47;7.10;;;5.03;;
69083;SDS011;56185;48.526;9.044;2023-03-17T07:47:12;6.47;;;4.60;;
69083;SDS011;56185;48.526;9.044;2023-03-17T07:49:38;6.75;;;4.55;;
69083;SDS011;56185;48.526;9.044;2023-03-17T07:52:03;8.38;;;4.88;;
69083;SDS011;56185;48.526;9.044;2023-03-17T07:54:29;10.82;;;4.30;;
69083;SDS011;56185;48.526;9.044;2023-03-17T07:56:54;10.77;;;4.30;;
69083;SDS011;56185;48.526;9.044;2023-03-17T07:59:20;9.13;;;4.70;;
69083;SDS011;56185;48.526;9.044;2023-03-17T08:01:45;11.25;;;4.53;;
69083;SDS011;56185;48.526;9.044;2023-03-17T08:04:12;8.15;;;4.45;;
69083;SDS011;56185;48.526;9.044;2023-03-17T08:06:38;8.25;;;4.28;;
69083;SDS011;56185;48.526;9.044;2023-03-17T08:09:04;7.47;;;4.78;;
69083;SDS011;56185;48.526;9.044;2023-03-17T08:11:29;9.13;;;4.53;;
69083;SDS011;56185;48.526;9.044;2023-03-17T08:13:54;8.38;;;4.43;;
69083;SDS011;56185;48.526;9.044;2023-03-17T08:16:19;6.23;;;4.17;;
69083;SDS011;56185;48.526;9.044;2023-03-17T08:18:45;6.72;;;4.35;;
69083;SDS011;56185;48.526;9.044;2023-03-17T08:21:10;6.18;;;4.28;;
69083;SDS011;56185;48.526;9.044;2023-03-17T08:23:35;6.25;;;4.10;;
69083;SDS011;56185;48.526;9.044;2023-03-17T08:26:01;6.00;;;4.20;;
69083;SDS011;56185;48.526;9.044;2023-03-17T08:28:28;7.25;;;3.92;;
69083;SDS011;56185;48.526;9.044;2023-03-17T08:30:54;6.72;;;3.78;;
69083;SDS011;56185;48.526;9.044;2023-03-17T08:33:29;7.88;;;4.05;;
69083;SDS011;56185;48.526;9.044;2023-03-17T08:35:54;7.03;;;4.30;;
69083;SDS011;56185;48.526;9.044;2023-03-17T08:38:19;8.87;;;4.60;;
69083;SDS011;56185;48.526;9.044;2023-03-17T08:40:44;8.20;;;4.32;;
69083;SDS011;56185;48.526;9.044;2023-03-17T08:43:10;8.90;;;4.40;;
69083;SDS011;56185;48.526;9.044;2023-03-17T08:45:35;7.23;;;3.93;;
69083;SDS011;56185;48.526;9.044;2023-03-17T08:48:02;6.38;;;4.47;;
69083;SDS011;56185;48.526;9.044;2023-03-17T08:50:28;9.20;;;4.22;;
69083;SDS011;56185;48.526;9.044;2023-03-17T08:52:54;7.28;;;4.40;;
69083;SDS011;56185;48.526;9.044;2023-03-17T08:55:19;5.45;;;4.10;;
69083;SDS011;56185;48.526;9.044;2023-03-17T08:57:45;6.85;;;3.90;;
69083;SDS011;56185;48.526;9.044;2023-03-17T09:00:11;5.95;;;3.80;;
69083;SDS011;56185;48.526;9.044;2023-03-17T09:02:39;7.50;;;4.20;;
69083;SDS011;56185;48.526;9.044;2023-03-17T09:05:06;6.70;;;3.88;;
69083;SDS011;56185;48.526;9.044;2023-03-17T09:07:31;5.85;;;3.45;;
69083;SDS011;56185;48.526;9.044;2023-03-17T09:09:57;7.10;;;4.05;;
69083;SDS011;56185;48.526;9.044;2023-03-17T09:12:23;6.22;;;3.78;;
69083;SDS011;56185;48.526;9.044;2023-03-17T09:14:49;7.13;;;4.15;;
69083;SDS011;56185;48.526;9.044;2023-03-17T09:17:14;7.43;;;4.10;;
69083;SDS011;56185;48.526;9.044;2023-03-17T09:19:39;7.95;;;3.35;;
69083;SDS011;56185;48.526;9.044;2023-03-17T09:22:05;5.32;;;3.58;;
69083;SDS011;56185;48.526;9.044;2023-03-17T09:24:30;8.73;;;3.60;;
69083;SDS011;56185;48.526;9.044;2023-03-17T09:26:55;6.23;;;3.33;;
69083;SDS011;56185;48.526;9.044;2023-03-17T09:29:20;5.03;;;2.90;;
69083;SDS011;56185;48.526;9.044;2023-03-17T09:31:46;7.47;;;3.43;;
69083;SDS011;56185;48.526;9.044;2023-03-17T09:34:11;5.33;;;3.00;;
69083;SDS011;56185;48.526;9.044;2023-03-17T09:36:36;5.60;;;3.10;;
69083;SDS011;56185;48.526;9.044;2023-03-17T09:39:01;5.33;;;3.13;;
69083;SDS011;56185;48.526;9.044;2023-03-17T09:44:03;4.78;;;2.85;;
69083;SDS011;56185;48.526;9.044;2023-03-17T09:46:56;5.43;;;2.70;;
69083;SDS011;56185;48.526;9.044;2023-03-17T09:49:35;5.93;;;2.72;;
69083;SDS011;56185;48.526;9.044;2023-03-17T09:52:04;5.45;;;2.63;;
69083;SDS011;56185;48.526;9.044;2023-03-17T09:54:36;4.45;;;2.72;;
69083;SDS011;56185;48.526;9.044;2023-03-17T09:59:41;5.97;;;2.38;;
69083;SDS011;56185;48.526;9.044;2023-03-17T10:02:16;3.92;;;2.28;;
69083;SDS011;56185;48.526;9.044;2023-03-17T10:04:46;3.17;;;2.28;;
69083;SDS011;56185;48.526;9.044;2023-03-17T10:07:11;3.58;;;2.03;;
69083;SDS011;56185;48.526;9.044;2023-03-17T10:10:02;4.97;;;2.40;;
69083;SDS011;56185;48.526;9.044;2023-03-17T10:15:32;4.10;;;2.50;;
69083;SDS011;56185;48.526;9.044;2023-03-17T10:18:06;4.63;;;2.15;;
69083;SDS011;56185;48.526;9.044;2023-03-17T10:20:34;4.97;;;2.60;;
69083;SDS011;56185;48.526;9.044;2023-03-17T10:23:06;4.97;;;2.60;;
69083;SDS011;56185;48.526;9.044;2023-03-17T10:25:37;4.07;;;2.67;;
69083;SDS011;56185;48.526;9.044;2023-03-17T10:30:49;3.28;;;2.33;;
69083;SDS011;56185;48.526;9.044;2023-03-17T10:33:14;6.72;;;2.60;;
69083;SDS011;56185;48.526;9.044;2023-03-17T10:35:40;3.35;;;2.13;;
69083;SDS011;56185;48.526;9.044;2023-03-17T10:38:19;4.88;;;2.47;;
69083;SDS011;56185;48.526;9.044;2023-03-17T10:40:46;6.88;;;2.80;;
69083;SDS011;56185;48.526;9.044;2023-03-17T10:43:20;4.03;;;2.58;;
69083;SDS011;56185;48.526;9.044;2023-03-17T10:45:53;3.40;;;2.30;;
69083;SDS011;56185;48.526;9.044;2023-03-17T10:48:22;4.10;;;2.45;;
69083;SDS011;56185;48.526;9.044;2023-03-17T10:50:48;6.15;;;2.50;;
69083;SDS011;56185;48.526;9.044;2023-03-17T10:53:17;4.93;;;2.40;;
69083;SDS011;56185;48.526;9.044;2023-03-17T10:55:49;4.95;;;2.45;;
69083;SDS011;56185;48.526;9.044;2023-03-17T10:58:17;4.38;;;2.40;;
69083;SDS011;56185;48.526;9.044;2023-03-17T11:00:58;4.50;;;2.58;;
69083;SDS011;56185;48.526;9.044;2023-03-17T11:03:32;5.78;;;2.47;;
69083;SDS011;56185;48.526;9.044;2023-03-17T11:06:03;4.15;;;2.40;;
69083;SDS011;56185;48.526;9.044;2023-03-17T11:08:34;4.47;;;2.10;;
69083;SDS011;56185;48.526;9.044;2023-03-17T11:11:27;4.57;;;2.30;;
69083;SDS011;56185;48.526;9.044;2023-03-17T11:16:40;4.10;;;2.50;;
69083;SDS011;56185;48.526;9.044;2023-03-17T11:19:30;4.43;;;2.20;;
69083;SDS011;56185;48.526;9.044;2023-03-17T11:22:13;4.53;;;2.40;;
69083;SDS011;56185;48.526;9.044;2023-03-17T11:27:34;3.38;;;2.22;;
69083;SDS011;56185;48.526;9.044;2023-03-17T11:30:14;5.88;;;2.50;;
69083;SDS011;56185;48.526;9.044;2023-03-17T11:32:42;5.20;;;2.45;;
69083;SDS011;56185;48.526;9.044;2023-03-17T11:38:18;3.38;;;2.25;;
69083;SDS011;56185;48.526;9.044;2023-03-17T11:49:10;4.55;;;2.20;;
69083;SDS011;56185;48.526;9.044;2023-03-17T11:57:13;4.13;;;2.38;;
69083;SDS011;56185;48.526;9.044;2023-03-17T11:59:46;3.67;;;2.03;;
69083;SDS011;56185;48.526;9.044;2023-03-17T12:05:01;4.82;;;2.17;;
69083;SDS011;56185;48.526;9.044;2023-03-17T12:08:05;3.88;;;1.95;;
69083;SDS011;56185;48.526;9.044;2023-03-17T12:10:32;4.72;;;2.05;;
69083;SDS011;56185;48.526;9.044;2023-03-17T12:13:02;5.55;;;1.98;;
69083;SDS011;56185;48.526;9.044;2023-03-17T12:15:37;3.00;;;1.83;;
69083;SDS011;56185;48.526;9.044;2023-03-17T12:18:27;4.60;;;1.80;;
69083;SDS011;56185;48.526;9.044;2023-03-17T12:23:47;3.85;;;1.80;;
69083;SDS011;56185;48.526;9.044;2023-03-17T12:28:56;2.63;;;1.77;;
69083;SDS011;56185;48.526;9.044;2023-03-17T12:36:43;3.10;;;1.80;;
69083;SDS011;56185;48.526;9.044;2023-03-17T12:39:11;2.67;;;1.60;;
69083;SDS011;56185;48.526;9.044;2023-03-17T12:41:48;4.13;;;1.40;;
69083;SDS011;56185;48.526;9.044;2023-03-17T12:55:25;3.45;;;1.00;;
69083;SDS011;56185;48.526;9.044;2023-03-17T12:58:01;2.95;;;1.00;;
69083;SDS011;56185;48.526;9.044;2023-03-17T13:00:29;2.05;;;1.20;;
69083;SDS011;56185;48.526;9.044;2023-03-17T13:03:16;2.58;;;1.40;;
69083;SDS011;56185;48.526;9.044;2023-03-17T13:05:49;1.90;;;1.05;;
69083;SDS011;56185;48.526;9.044;2023-03-17T13:08:20;1.80;;;0.90;;
69083;SDS011;56185;48.526;9.044;2023-03-17T13:10:49;1.88;;;1.10;;
69083;SDS011;56185;48.526;9.044;2023-03-17T13:16:24;2.00;;;1.10;;
69083;SDS011;56185;48.526;9.044;2023-03-17T13:21:44;1.70;;;1.02;;
69083;SDS011;56185;48.526;9.044;2023-03-17T13:29:55;2.85;;;1.23;;
69083;SDS011;56185;48.526;9.044;2023-03-17T13:32:32;1.92;;;1.33;;
69083;SDS011;56185;48.526;9.044;2023-03-17T13:37:27;2.03;;;1.10;;
69083;SDS011;56185;48.526;9.044;2023-03-17T13:40:24;2.65;;;1.10;;
69083;SDS011;56185;48.526;9.044;2023-03-17T13:45:55;3.63;;;1.20;;
69083;SDS011;56185;48.526;9.044;2023-03-17T13:48:42;2.03;;;1.13;;
69083;SDS011;56185;48.526;9.044;2023-03-17T13:53:34;2.67;;;1.10;;
69083;SDS011;56185;48.526;9.044;2023-03-17T14:01:23;3.13;;;1.00;;
69083;SDS011;56185;48.526;9.044;2023-03-17T14:03:50;1.95;;;1.00;;
69083;SDS011;56185;48.526;9.044;2023-03-17T14:06:16;1.58;;;0.88;;
69083;SDS011;56185;48.526;9.044;2023-03-17T14:08:46;1.50;;;0.80;;
69083;SDS011;56185;48.526;9.044;2023-03-17T14:11:21;2.35;;;1.10;;
69083;SDS011;56185;48.526;9.044;2023-03-17T14:13:54;2.58;;;0.90;;
69083;SDS011;56185;48.526;9.044;2023-03-17T14:16:33;2.05;;;0.90;;
69083;SDS011;56185;48.526;9.044;2023-03-17T14:19:17;4.55;;;0.90;;
69083;SDS011;56185;48.526;9.044;2023-03-17T14:21:43;2.15;;;0.93;;
69083;SDS011;56185;48.526;9.044;2023-03-17T14:24:41;1.60;;;0.90;;
69083;SDS011;56185;48.526;9.044;2023-03-17T14:27:06;2.22;;;1.33;;
69083;SDS011;56185;48.526;9.044;2023-03-17T14:29:32;2.70;;;1.02;;
69083;SDS011;56185;48.526;9.044;2023-03-17T14:32:11;1.50;;;0.90;;
69083;SDS011;56185;48.526;9.044;2023-03-17T14:34:45;2.22;;;1.00;;
69083;SDS011;56185;48.526;9.044;2023-03-17T14:37:13;2.70;;;0.90;;
69083;SDS011;56185;48.526;9.044;2023-03-17T14:39:46;1.92;;;1.00;;
69083;SDS011;56185;48.526;9.044;2023-03-17T14:44:41;2.00;;;1.10;;
69083;SDS011;56185;48.526;9.044;2023-03-17T14:47:21;2.60;;;1.20;;
69083;SDS011;56185;48.526;9.044;2023-03-17T14:49:49;1.73;;;1.08;;
69083;SDS011;56185;48.526;9.044;2023-03-17T14:52:17;1.80;;;1.10;;
69083;SDS011;56185;48.526;9.044;2023-03-17T14:54:52;4.78;;;1.20;;
69083;SDS011;56185;48.526;9.044;2023-03-17T14:57:20;2.20;;;1.15;;
69083;SDS011;56185;48.526;9.044;2023-03-17T15:02:35;2.55;;;1.60;;
69083;SDS011;56185;48.526;9.044;2023-03-17T15:05:03;3.42;;;1.40;;
69083;SDS011;56185;48.526;9.044;2023-03-17T15:07:30;2.58;;;1.23;;
69083;SDS011;56185;48.526;9.044;2023-03-17T15:10:03;1.90;;;1.17;;
69083;SDS011;56185;48.526;9.044;2023-03-17T15:12:29;3.10;;;1.17;;
69083;SDS011;56185;48.526;9.044;2023-03-17T15:15:10;2.72;;;1.10;;
69083;SDS011;56185;48.526;9.044;2023-03-17T15:17:48;3.17;;;1.30;;
69083;SDS011;56185;48.526;9.044;2023-03-17T15:20:16;2.80;;;1.50;;
69083;SDS011;56185;48.526;9.044;2023-03-17T15:22:45;1.83;;;1.20;;
69083;SDS011;56185;48.526;9.044;2023-03-17T15:25:18;3.25;;;1.30;;
69083;SDS011;56185;48.526;9.044;2023-03-17T15:27:43;2.75;;;1.35;;
69083;SDS011;56185;48.526;9.044;2023-03-17T15:30:10;1.83;;;1.10;;
69083;SDS011;56185;48.526;9.044;2023-03-17T15:32:36;2.22;;;1.30;;
69083;SDS011;56185;48.526;9.044;2023-03-17T15:35:03;4.20;;;1.30;;
69083;SDS011;56185;48.526;9.044;2023-03-17T15:37:30;2.47;;;1.30;;
69083;SDS011;56185;48.526;9.044;2023-03-17T15:39:56;4.15;;;1.50;;
69083;SDS011;56185;48.526;9.044;2023-03-17T15:42:23;3.20;;;1.40;;
69083;SDS011;56185;48.526;9.044;2023-03-17T15:44:53;3.65;;;1.23;;
69083;SDS011;56185;48.526;9.044;2023-03-17T15:47:20;5.43;;;1.50;;
69083;SDS011;56185;48.526;9.044;2023-03-17T15:49:48;2.42;;;1.55;;
69083;SDS011;56185;48.526;9.044;2023-03-17T15:52:21;2.28;;;1.33;;
69083;SDS011;56185;48.526;9.044;2023-03-17T15:54:48;2.42;;;1.55;;
69083;SDS011;56185;48.526;9.044;2023-03-17T15:57:20;1.98;;;1.30;;
69083;SDS011;56185;48.526;9.044;2023-03-17T15:59:45;2.28;;;1.30;;
69083;SDS011;56185;48.526;9.044;2023-03-17T16:02:13;2.37;;;1.33;;
69083;SDS011;56185;48.526;9.044;2023-03-17T16:04:45;2.75;;;1.10;;
69083;SDS011;56185;48.526;9.044;2023-03-17T16:07:11;3.77;;;1.40;;
69083;SDS011;56185;48.526;9.044;2023-03-17T16:09:36;1.95;;;1.20;;
69083;SDS011;56185;48.526;9.044;2023-03-17T16:12:01;4.30;;;1.10;;
69083;SDS011;56185;48.526;9.044;2023-03-17T16:14:26;3.00;;;1.00;;
69083;SDS011;56185;48.526;9.044;2023-03-17T16:16:52;1.90;;;1.10;;
69083;SDS011;56185;48.526;9.044;2023-03-17T16:19:18;2.58;;;1.20;;
69083;SDS011;56185;48.526;9.044;2023-03-17T16:21:46;2.33;;;1.00;;
69083;SDS011;56185;48.526;9.044;2023-03-17T16:24:17;2.40;;;1.30;;
69083;SDS011;56185;48.526;9.044;2023-03-17T16:26:45;2.33;;;1.20;;
69083;SDS011;56185;48.526;9.044;2023-03-17T16:29:11;3.30;;;1.47;;
69083;SDS011;56185;48.526;9.044;2023-03-17T16:31:37;4.45;;;1.60;;